createdAt,value
2018-10-19T00:02:10.834Z,84.51
2018-10-19T00:04:38.874Z,83.41
2018-10-19T00:07:06.203Z,81.93
2018-10-19T00:09:33.861Z,83.15
2018-10-19T00:12:01.401Z,83.43
2018-10-19T00:14:30.174Z,83.74
2018-10-19T00:16:57.719Z,84.92
2018-10-19T00:19:26.034Z,84.34
2018-10-19T00:21:53.431Z,83.60
2018-10-19T00:24:20.649Z,83.32
2018-10-19T00:26:50.202Z,82.92
2018-10-19T00:29:18.487Z,83.44
2018-10-19T00:31:47.056Z,83.01
2018-10-19T00:34:14.862Z,82.45
2018-10-19T00:36:42.289Z,82.20
2018-10-19T00:39:11.582Z,81.98
2018-10-19T00:41:38.942Z,82.11
2018-10-19T00:44:06.696Z,83.09
2018-10-19T00:46:34.184Z,82.79
2018-10-19T00:49:03.876Z,83.95
2018-10-19T00:51:31.239Z,83.23
2018-10-19T00:54:00.123Z,83.45
2018-10-19T00:56:34.051Z,84.59
2018-10-19T00:59:01.891Z,83.13
2018-10-19T01:01:29.752Z,83.70
2018-10-19T01:03:57.135Z,85.04
2018-10-19T01:06:24.625Z,83.68
2018-10-19T01:08:54.121Z,82.74
2018-10-19T01:11:22.862Z,82.70
2018-10-19T01:13:50.307Z,83.02
2018-10-19T01:16:17.732Z,85.24
2018-10-19T01:18:45.158Z,84.83
2018-10-19T01:21:12.597Z,84.40
2018-10-19T01:23:40.465Z,84.04
2018-10-19T01:26:08.151Z,83.83
2018-10-19T01:28:36.331Z,84.57
2018-10-19T01:31:03.665Z,84.51
2018-10-19T01:33:31.161Z,85.10
2018-10-19T01:36:00.482Z,85.83
2018-10-19T01:38:28.017Z,84.75
2018-10-19T01:40:55.667Z,84.38
2018-10-19T01:43:23.072Z,85.11
2018-10-19T01:45:55.423Z,84.15
2018-10-19T01:48:23.411Z,85.39
2018-10-19T01:50:52.254Z,84.40
2018-10-19T01:53:21.889Z,83.44
2018-10-19T01:55:52.374Z,83.44
2018-10-19T01:58:20.003Z,83.21
2018-10-19T02:00:53.500Z,83.40
2018-10-19T02:03:21.082Z,83.62
2018-10-19T02:05:48.485Z,84.71
2018-10-19T02:08:15.888Z,83.60
2018-10-19T02:10:44.169Z,83.14
2018-10-19T02:13:13.207Z,82.91
2018-10-19T02:15:40.648Z,82.96
2018-10-19T02:18:08.026Z,83.10
2018-10-19T02:20:35.483Z,82.63
2018-10-19T02:23:02.735Z,83.45
2018-10-19T02:25:30.179Z,82.89
2018-10-19T02:27:57.809Z,83.73
2018-10-19T02:30:28.100Z,84.57
2018-10-19T02:32:57.714Z,84.49
2018-10-19T02:35:26.269Z,84.40
2018-10-19T02:37:54.546Z,84.59
2018-10-19T02:40:23.188Z,83.94
2018-10-19T02:42:51.554Z,84.81
2018-10-19T02:45:19.397Z,85.71
2018-10-19T02:47:47.104Z,86.03
2018-10-19T02:50:14.456Z,84.73
2018-10-19T02:52:44.811Z,83.59
2018-10-19T02:55:12.253Z,83.87
2018-10-19T02:57:40.748Z,83.86
2018-10-19T03:00:09.680Z,84.69
2018-10-19T03:02:37.217Z,84.08
2018-10-19T03:05:05.740Z,83.78
2018-10-19T03:07:33.327Z,84.73
2018-10-19T03:10:00.714Z,85.35
2018-10-19T03:12:30.222Z,84.45
2018-10-19T03:15:00.233Z,84.95
2018-10-19T03:17:27.735Z,85.18
2018-10-19T03:19:55.398Z,85.98
2018-10-19T03:22:23.680Z,86.05
2018-10-19T03:24:52.113Z,84.87
2018-10-19T03:27:20.144Z,85.07
2018-10-19T03:29:47.348Z,85.09
2018-10-19T03:33:39.929Z,85.46
2018-10-19T03:36:07.702Z,86.93
2018-10-19T03:38:36.336Z,87.66
2018-10-19T03:41:04.906Z,87.26
2018-10-19T03:43:32.353Z,87.37
2018-10-19T03:46:00.002Z,87.52
2018-10-19T03:48:28.083Z,86.45
2018-10-19T03:50:57.749Z,86.70
2018-10-19T03:53:25.120Z,86.29
2018-10-19T03:55:53.380Z,86.22
2018-10-19T03:58:20.855Z,86.68
2018-10-19T04:00:48.459Z,87.53
2018-10-19T04:03:15.791Z,85.64
2018-10-19T04:05:43.964Z,85.18
2018-10-19T04:08:11.476Z,85.76
2018-10-19T04:10:38.841Z,86.29
2018-10-19T04:13:06.200Z,86.48
2018-10-19T04:15:33.671Z,86.07
2018-10-19T04:18:01.224Z,87.07
2018-10-19T04:20:29.576Z,87.29
2018-10-19T04:23:03.957Z,87.18
2018-10-19T04:25:31.526Z,88.23
2018-10-19T04:27:59.278Z,86.26
2018-10-19T04:30:28.853Z,85.74
2018-10-19T04:32:58.691Z,87.06
2018-10-19T04:35:28.247Z,88.13
2018-10-19T04:37:55.571Z,88.26
2018-10-19T04:40:23.367Z,90.00
2018-10-19T04:42:52.930Z,89.52
2018-10-19T04:45:22.643Z,90.03
2018-10-19T04:47:50.210Z,90.06
2018-10-19T04:50:18.329Z,91.32
2018-10-19T04:52:45.902Z,92.86
2018-10-19T04:55:15.242Z,93.28
2018-10-19T04:57:44.511Z,92.69
2018-10-19T05:00:13.919Z,92.45
2018-10-19T05:02:43.997Z,90.85
2018-10-19T05:05:11.547Z,90.42
2018-10-19T05:07:39.210Z,89.54
2018-10-19T05:10:07.735Z,89.27
2018-10-19T05:12:35.157Z,90.63
2018-10-19T05:15:03.010Z,90.60
2018-10-19T05:17:31.466Z,90.22
2018-10-19T05:20:01.036Z,91.30
2018-10-19T05:22:28.802Z,91.80
2018-10-19T05:24:57.844Z,92.30
2018-10-19T05:27:26.252Z,91.63
2018-10-19T05:29:53.692Z,91.84
2018-10-19T05:32:23.467Z,91.80
2018-10-19T05:34:51.092Z,92.68
2018-10-19T05:37:19.554Z,93.05
2018-10-19T05:39:47.283Z,92.82
2018-10-19T05:42:16.827Z,92.21
2018-10-19T05:44:45.656Z,92.86
2018-10-19T05:47:15.381Z,92.66
2018-10-19T05:49:43.789Z,92.18
2018-10-19T05:52:11.382Z,93.01
2018-10-19T05:54:39.666Z,92.64
2018-10-19T05:57:09.371Z,93.37
2018-10-19T05:59:36.852Z,93.94
2018-10-19T06:02:04.528Z,93.12
2018-10-19T06:04:33.510Z,92.39
2018-10-19T06:07:00.878Z,92.42
2018-10-19T06:09:29.358Z,91.94
2018-10-19T06:11:56.711Z,91.40
2018-10-19T06:14:25.323Z,91.75
2018-10-19T06:16:52.759Z,91.56
2018-10-19T06:19:20.438Z,91.07
2018-10-19T06:21:49.698Z,91.43
2018-10-19T06:24:17.680Z,91.74
2018-10-19T06:26:45.247Z,92.43
2018-10-19T06:29:14.906Z,92.00
2018-10-19T06:31:42.110Z,91.85
2018-10-19T06:34:09.513Z,92.41
2018-10-19T06:36:39.287Z,93.23
2018-10-19T06:39:08.024Z,93.05
2018-10-19T06:41:35.373Z,93.09
2018-10-19T06:44:03.722Z,93.32
2018-10-19T06:46:33.636Z,93.88
2018-10-19T06:49:01.931Z,93.76
2018-10-19T06:51:29.400Z,94.09
2018-10-19T06:53:56.849Z,94.99
2018-10-19T06:56:26.678Z,95.90
2018-10-19T06:58:56.360Z,96.53
2018-10-19T07:01:24.030Z,95.78
2018-10-19T07:03:51.465Z,96.34
2018-10-19T07:06:18.886Z,96.15
2018-10-19T07:08:46.859Z,94.72
2018-10-19T07:11:14.496Z,94.32
2018-10-19T07:13:41.863Z,95.01
2018-10-19T07:16:09.241Z,94.20
2018-10-19T07:18:38.517Z,95.40
2018-10-19T07:21:05.858Z,95.15
2018-10-19T07:23:33.161Z,95.11
2018-10-19T07:26:01.643Z,95.54
2018-10-19T07:28:31.600Z,95.73
2018-10-19T07:31:02.703Z,95.68
2018-10-19T07:33:31.775Z,96.02
2018-10-19T07:36:02.164Z,95.90
2018-10-19T07:38:31.665Z,94.40
2018-10-19T07:41:00.692Z,94.98
2018-10-19T07:43:27.966Z,94.32
2018-10-19T07:45:55.768Z,94.19
2018-10-19T07:48:23.330Z,93.29
2018-10-19T07:50:51.629Z,93.17
2018-10-19T07:53:20.708Z,92.92
2018-10-19T07:55:48.867Z,93.17
2018-10-19T07:58:16.190Z,93.59
2018-10-19T08:00:43.647Z,92.60
2018-10-19T08:03:10.888Z,93.36
2018-10-19T08:05:38.473Z,93.09
2018-10-19T08:08:07.457Z,93.36
2018-10-19T08:10:34.724Z,91.99
2018-10-19T08:13:02.282Z,92.38
2018-10-19T08:15:31.652Z,92.64
2018-10-19T08:20:08.636Z,91.99
2018-10-19T08:22:37.868Z,92.40
2018-10-19T08:25:06.892Z,91.85
2018-10-19T08:27:35.183Z,91.92
2018-10-19T08:30:05.382Z,91.10
2018-10-19T08:32:34.505Z,90.52
2018-10-19T08:35:01.984Z,90.83
2018-10-19T08:37:29.959Z,89.97
2018-10-19T08:39:57.425Z,89.54
2018-10-19T08:42:24.771Z,89.12
2018-10-19T08:44:54.393Z,88.71
2018-10-19T08:47:21.777Z,90.01
2018-10-19T08:49:50.421Z,89.49
2018-10-19T08:52:17.803Z,90.80
2018-10-19T08:54:45.263Z,90.32
2018-10-19T08:57:12.900Z,87.47
2018-10-19T08:59:40.366Z,86.68
2018-10-19T09:02:08.290Z,86.63
2018-10-19T09:04:37.492Z,87.02
2018-10-19T09:07:04.978Z,84.67
2018-10-19T09:09:33.089Z,79.37
2018-10-19T09:12:01.726Z,80.45
2018-10-19T09:14:46.029Z,82.15
2018-10-19T09:17:13.574Z,82.40
2018-10-19T09:19:41.072Z,82.52
2018-10-19T09:22:08.462Z,82.15
2018-10-19T09:24:36.472Z,80.99
2018-10-19T09:27:04.487Z,79.07
2018-10-19T09:29:33.127Z,73.28
2018-10-19T09:32:01.199Z,70.49
2018-10-19T09:34:29.238Z,69.98
2018-10-19T09:36:57.231Z,69.48
2018-10-19T09:39:24.695Z,67.29
2018-10-19T09:41:51.969Z,64.42
2018-10-19T09:44:19.440Z,61.73
2018-10-19T09:46:54.379Z,60.85
2018-10-19T09:49:24.692Z,61.78
2018-10-19T09:51:53.395Z,60.80
2018-10-19T09:54:20.771Z,59.64
2018-10-19T09:56:49.203Z,59.06
2018-10-19T09:59:17.285Z,57.12
2018-10-19T10:01:45.675Z,55.67
2018-10-19T10:04:13.862Z,55.50
2018-10-19T10:06:41.363Z,54.16
2018-10-19T10:09:15.009Z,53.35
2018-10-19T10:11:43.483Z,53.36
2018-10-19T10:14:12.046Z,52.52
2018-10-19T10:16:40.859Z,53.66
2018-10-19T10:19:08.503Z,52.45
2018-10-19T10:21:37.481Z,51.61
2018-10-19T10:24:06.279Z,52.94
2018-10-19T10:26:34.796Z,53.21
2018-10-19T10:29:02.277Z,53.89
2018-10-19T10:31:29.788Z,54.91
2018-10-19T10:33:59.422Z,55.69
2018-10-19T10:36:26.856Z,53.93
2018-10-19T10:38:54.319Z,55.38
2018-10-19T10:41:21.620Z,55.22
2018-10-19T10:43:48.956Z,53.61
2018-10-19T10:46:16.460Z,53.04
2018-10-19T10:48:47.733Z,52.74
2018-10-19T10:51:15.722Z,51.85
2018-10-19T10:53:44.641Z,51.53
2018-10-19T10:56:11.909Z,51.52
2018-10-19T10:58:42.143Z,50.84
2018-10-19T11:01:11.753Z,51.11
2018-10-19T11:03:51.703Z,50.76
2018-10-19T11:06:20.757Z,49.36
2018-10-19T11:08:48.760Z,48.21
2018-10-19T11:11:16.672Z,49.21
2018-10-19T11:13:44.476Z,49.16
2018-10-19T11:16:14.157Z,49.46
2018-10-19T11:18:42.318Z,47.51
2018-10-19T11:21:11.171Z,48.68
2018-10-19T11:23:40.788Z,48.85
2018-10-19T11:26:08.351Z,47.72
2018-10-19T11:28:35.868Z,46.22
2018-10-19T11:31:07.352Z,45.48
2018-10-19T11:33:34.813Z,45.32
2018-10-19T11:36:06.276Z,43.92
2018-10-19T11:38:33.889Z,44.26
2018-10-19T11:41:02.339Z,44.68
2018-10-19T11:43:29.606Z,44.71
2018-10-19T11:45:57.679Z,45.57
2018-10-19T11:48:27.438Z,44.90
2018-10-19T11:50:56.739Z,45.34
2018-10-19T11:53:24.114Z,44.61
2018-10-19T11:55:51.441Z,44.74
2018-10-19T11:58:19.748Z,44.68
2018-10-19T12:00:48.014Z,43.23
2018-10-19T12:03:15.977Z,43.14
2018-10-19T12:05:44.457Z,43.09
2018-10-19T12:08:12.376Z,43.98
2018-10-19T12:10:39.872Z,43.46
2018-10-19T12:13:07.307Z,44.98
2018-10-19T12:15:34.737Z,45.50
2018-10-19T12:18:02.137Z,45.05
2018-10-19T12:20:29.566Z,44.95
2018-10-19T12:22:56.900Z,45.41
2018-10-19T12:25:24.331Z,45.86
2018-10-19T12:27:51.748Z,44.99
2018-10-19T12:30:19.212Z,45.28
2018-10-19T12:32:47.963Z,44.86
2018-10-19T12:35:16.242Z,44.08
2018-10-19T12:37:43.641Z,44.81
2018-10-19T12:40:13.597Z,45.81
2018-10-19T12:42:41.030Z,45.12
2018-10-19T12:45:20.249Z,45.44
2018-10-19T12:47:50.190Z,46.05
2018-10-19T12:50:18.915Z,46.82
2018-10-19T12:52:50.933Z,47.51
2018-10-19T12:55:18.955Z,47.63
2018-10-19T12:57:47.530Z,48.57
2018-10-19T13:01:39.395Z,48.27
2018-10-19T13:04:06.805Z,49.10
2018-10-19T13:06:35.298Z,48.46
2018-10-19T13:09:09.059Z,49.36
2018-10-19T13:11:38.055Z,47.92
2018-10-19T13:14:05.545Z,48.99
2018-10-19T13:16:33.074Z,47.71
2018-10-19T13:19:01.683Z,47.39
2018-10-19T13:21:29.760Z,48.02
2018-10-19T13:23:57.260Z,47.39
2018-10-19T13:26:24.963Z,47.53
2018-10-19T13:28:53.250Z,48.40
2018-10-19T13:31:20.763Z,48.00
2018-10-19T13:33:50.298Z,47.66
2018-10-19T13:36:18.986Z,47.93
2018-10-19T13:38:46.935Z,48.34
2018-10-19T13:41:15.183Z,48.38
2018-10-19T13:43:43.076Z,48.17
2018-10-19T13:46:10.711Z,48.70
2018-10-19T13:48:38.622Z,48.53
2018-10-19T13:51:06.186Z,47.70
2018-10-19T13:53:33.414Z,46.55
2018-10-19T13:56:00.696Z,45.91
2018-10-19T13:58:28.546Z,46.24
2018-10-19T14:00:55.832Z,45.48
2018-10-19T14:03:23.142Z,45.83
2018-10-19T14:05:51.539Z,45.22
2018-10-19T14:08:18.804Z,46.71
2018-10-19T14:10:46.743Z,45.81
2018-10-19T14:13:14.368Z,46.61
2018-10-19T14:15:42.239Z,46.52
2018-10-19T14:18:11.140Z,46.34
2018-10-19T14:20:38.498Z,46.36
2018-10-19T14:23:06.833Z,47.00
2018-10-19T14:25:34.228Z,46.52
2018-10-19T14:28:02.135Z,46.41
2018-10-19T14:30:34.368Z,46.45
2018-10-19T14:33:03.021Z,48.24
2018-10-19T14:35:31.625Z,47.77
2018-10-19T14:38:00.314Z,47.45
2018-10-19T14:40:27.700Z,47.32
2018-10-19T14:42:55.996Z,47.72
2018-10-19T14:45:25.376Z,47.72
2018-10-19T14:47:52.792Z,48.15
2018-10-19T14:50:20.274Z,47.70
2018-10-19T14:52:47.703Z,47.62
2018-10-19T14:55:17.493Z,48.82
2018-10-19T14:57:44.917Z,49.07
2018-10-19T15:00:13.618Z,49.38
2018-10-19T15:02:42.462Z,48.77
2018-10-19T15:05:13.175Z,48.88
2018-10-19T15:07:40.529Z,48.73
2018-10-19T15:10:11.681Z,48.73
2018-10-19T15:12:41.489Z,49.63
2018-10-19T15:15:11.660Z,48.78
2018-10-19T15:17:54.233Z,49.52
2018-10-19T15:20:21.549Z,49.53
2018-10-19T15:22:48.959Z,49.61
2018-10-19T15:25:18.460Z,50.41
2018-10-19T15:27:46.285Z,50.41
2018-10-19T15:30:15.866Z,50.29
2018-10-19T15:32:43.250Z,50.81
2018-10-19T15:35:11.184Z,50.34
2018-10-19T15:37:39.180Z,50.63
2018-10-19T15:40:08.255Z,50.71
2018-10-19T15:42:39.535Z,51.56
2018-10-19T15:45:10.764Z,52.49
2018-10-19T15:47:40.302Z,52.34
2018-10-19T15:50:08.127Z,52.95
2018-10-19T15:52:35.425Z,54.46
2018-10-19T15:55:04.930Z,54.47
2018-10-19T15:57:34.506Z,55.19
2018-10-19T16:00:01.970Z,55.78
2018-10-19T16:02:29.246Z,56.38
2018-10-19T16:04:58.253Z,57.37
2018-10-19T16:07:26.348Z,57.93
2018-10-19T16:09:53.670Z,58.56
2018-10-19T16:12:21.036Z,58.62
2018-10-19T16:14:48.403Z,59.75
2018-10-19T16:17:15.717Z,60.51
2018-10-19T16:19:43.046Z,60.95
2018-10-19T16:22:11.364Z,61.00
2018-10-19T16:24:38.726Z,61.51
2018-10-19T16:27:08.283Z,61.78
2018-10-19T16:29:35.772Z,62.30
2018-10-19T16:32:03.289Z,62.93
2018-10-19T16:34:30.675Z,63.38
2018-10-19T16:37:00.028Z,64.46
2018-10-19T16:39:27.316Z,65.26
2018-10-19T16:41:55.299Z,65.72
2018-10-19T16:44:22.628Z,65.36
2018-10-19T16:46:51.286Z,66.29
2018-10-19T16:49:20.531Z,65.84
2018-10-19T16:51:48.341Z,66.20
2018-10-19T16:54:15.834Z,67.66
2018-10-19T16:56:43.346Z,67.40
2018-10-19T16:59:11.056Z,67.57
2018-10-19T17:01:38.855Z,67.32
2018-10-19T17:04:06.510Z,67.96
2018-10-19T17:06:34.588Z,68.14
2018-10-19T17:09:07.238Z,67.74
2018-10-19T17:11:34.538Z,68.44
2018-10-19T17:14:02.183Z,68.26
2018-10-19T17:16:30.766Z,69.15
2018-10-19T17:18:58.293Z,69.93
2018-10-19T17:21:26.709Z,70.59
2018-10-19T17:23:54.349Z,70.60
2018-10-19T17:26:23.411Z,70.79
2018-10-19T17:28:50.786Z,70.54
2018-10-19T17:31:19.334Z,70.01
2018-10-19T17:34:19.339Z,70.34
2018-10-19T17:36:47.482Z,71.60
2018-10-19T17:39:15.386Z,71.06
2018-10-19T17:41:43.006Z,71.67
2018-10-19T17:44:13.249Z,72.15
2018-10-19T17:46:41.660Z,73.79
2018-10-19T17:49:12.105Z,74.18
2018-10-19T17:51:42.384Z,73.82
2018-10-19T17:54:10.284Z,73.20
2018-10-19T17:56:37.533Z,73.51
2018-10-19T17:59:05.092Z,73.81
2018-10-19T18:01:32.449Z,74.05
2018-10-19T18:04:01.258Z,73.44
2018-10-19T18:06:28.752Z,73.94
2018-10-19T18:08:57.594Z,74.32
2018-10-19T18:11:26.258Z,74.51
2018-10-19T18:13:54.082Z,74.48
2018-10-19T18:16:23.015Z,74.79
2018-10-19T18:18:50.450Z,74.51
2018-10-19T18:21:18.010Z,75.52
2018-10-19T18:23:46.145Z,75.94
2018-10-19T18:27:39.255Z,76.05
2018-10-19T18:30:07.108Z,76.50
2018-10-19T18:32:35.518Z,76.13
2018-10-19T18:35:03.024Z,76.06
2018-10-19T18:37:30.874Z,76.19
2018-10-19T18:39:59.134Z,77.17
2018-10-19T18:42:26.511Z,77.00
2018-10-19T18:44:54.276Z,76.97
2018-10-19T18:47:21.944Z,76.82
2018-10-19T18:49:50.288Z,77.36
2018-10-19T18:52:19.841Z,77.08
2018-10-19T18:54:48.622Z,77.95
2018-10-19T18:57:16.193Z,78.41
2018-10-19T18:59:43.921Z,78.19
2018-10-19T19:02:11.491Z,77.78
2018-10-19T19:04:38.842Z,77.56
2018-10-19T19:07:08.621Z,77.36
2018-10-19T19:09:36.675Z,79.26
2018-10-19T19:12:04.317Z,78.37
2018-10-19T19:14:31.767Z,78.71
2018-10-19T19:16:59.097Z,78.23
2018-10-19T19:19:29.172Z,79.10
2018-10-19T19:21:56.574Z,78.46
2018-10-19T19:24:30.389Z,78.29
2018-10-19T19:26:59.282Z,78.96
2018-10-19T19:29:26.639Z,78.69
2018-10-19T19:31:54.240Z,78.95
2018-10-19T19:34:26.040Z,78.95
2018-10-19T19:36:55.225Z,79.88
2018-10-19T19:39:22.515Z,79.21
2018-10-19T19:41:56.655Z,79.21
2018-10-19T19:44:24.078Z,79.38
2018-10-19T19:46:51.480Z,79.63
2018-10-19T19:49:25.019Z,79.40
2018-10-19T19:51:52.503Z,79.54
2018-10-19T19:54:20.929Z,78.97
2018-10-19T19:56:48.893Z,79.56
2018-10-19T19:59:16.340Z,80.14
2018-10-19T20:01:45.054Z,80.99
2018-10-19T20:04:13.475Z,81.38
2018-10-19T20:06:43.105Z,81.22
2018-10-19T20:09:10.438Z,80.56
2018-10-19T20:11:38.083Z,80.30
2018-10-19T20:14:05.625Z,80.18
2018-10-19T20:16:32.916Z,80.85
2018-10-19T20:19:01.969Z,80.54
2018-10-19T20:21:30.239Z,80.36
2018-10-19T20:23:59.531Z,80.91
2018-10-19T20:26:26.865Z,81.46
2018-10-19T20:28:55.201Z,82.34
2018-10-19T20:31:24.099Z,82.73
2018-10-19T20:33:51.699Z,81.63
2018-10-19T20:36:22.176Z,81.83
2018-10-19T20:38:52.391Z,82.00
2018-10-19T20:41:19.782Z,81.88
2018-10-19T20:43:47.054Z,82.16
2018-10-19T20:46:14.672Z,82.51
2018-10-19T20:48:43.774Z,82.73
2018-10-19T20:51:11.227Z,81.54
2018-10-19T20:53:40.253Z,81.67
2018-10-19T20:56:07.756Z,81.27
2018-10-19T20:58:35.233Z,81.95
2018-10-19T21:01:03.459Z,81.63
2018-10-19T21:03:30.843Z,81.76
2018-10-19T21:05:58.086Z,82.17
2018-10-19T21:08:25.486Z,82.32
2018-10-19T21:10:52.889Z,82.29
2018-10-19T21:13:20.326Z,82.35
2018-10-19T21:15:47.646Z,81.69
2018-10-19T21:18:14.978Z,80.77
2018-10-19T21:20:42.246Z,81.49
2018-10-19T21:23:09.583Z,81.60
2018-10-19T21:25:36.974Z,81.59
2018-10-19T21:28:04.798Z,82.08
2018-10-19T21:30:32.133Z,82.19
2018-10-19T21:32:59.534Z,81.62
2018-10-19T21:35:28.742Z,81.85
2018-10-19T21:37:56.307Z,82.40
2018-10-19T21:40:24.663Z,83.57
2018-10-19T21:42:52.052Z,83.80
2018-10-19T21:45:19.505Z,82.96
2018-10-19T21:47:48.637Z,82.68
2018-10-19T21:50:16.001Z,82.70
2018-10-19T21:52:43.486Z,83.84
2018-10-19T21:55:11.468Z,84.50
2018-10-19T21:57:40.861Z,84.76
2018-10-19T22:00:08.827Z,84.85
2018-10-19T22:02:36.966Z,83.47
2018-10-19T22:05:07.303Z,82.95
2018-10-19T22:07:34.950Z,82.65
2018-10-19T22:10:02.311Z,83.04
2018-10-19T22:12:30.918Z,82.95
2018-10-19T22:15:00.481Z,85.20
2018-10-19T22:17:28.551Z,84.75
2018-10-19T22:19:58.747Z,84.23
2018-10-19T22:22:26.050Z,83.96
2018-10-19T22:24:54.256Z,83.37
2018-10-19T22:27:21.594Z,83.68
2018-10-19T22:29:49.212Z,82.64
2018-10-19T22:32:16.549Z,82.01
2018-10-19T22:34:43.847Z,82.38
2018-10-19T22:37:11.260Z,82.04
2018-10-19T22:39:38.575Z,82.10
2018-10-19T22:42:05.872Z,81.88
2018-10-19T22:44:33.668Z,82.16
2018-10-19T22:47:02.052Z,82.34
2018-10-19T22:49:29.364Z,82.74
2018-10-19T22:51:58.394Z,82.94
2018-10-19T22:54:26.331Z,83.71
2018-10-19T22:56:53.608Z,83.92
2018-10-19T22:59:21.508Z,83.65
2018-10-19T23:01:49.046Z,83.99
2018-10-19T23:04:16.438Z,82.70
2018-10-19T23:06:44.016Z,82.31
2018-10-19T23:09:11.438Z,82.61
2018-10-19T23:11:38.823Z,82.85
2018-10-19T23:14:06.265Z,83.55
2018-10-19T23:16:34.088Z,83.07
2018-10-19T23:19:02.146Z,82.80
2018-10-19T23:21:30.562Z,82.96
2018-10-19T23:23:58.419Z,83.05
2018-10-19T23:26:27.469Z,82.67
2018-10-19T23:28:55.543Z,83.01
2018-10-19T23:31:23.961Z,83.17
2018-10-19T23:33:51.134Z,83.17
2018-10-19T23:36:18.556Z,84.02
2018-10-19T23:38:45.877Z,83.11
2018-10-19T23:41:13.425Z,83.56
2018-10-19T23:43:42.131Z,82.98
2018-10-19T23:46:09.428Z,82.61
2018-10-19T23:48:38.732Z,82.56
2018-10-19T23:51:06.072Z,83.71
2018-10-19T23:53:33.355Z,80.64
2018-10-19T23:56:00.882Z,81.58
2018-10-19T23:58:28.651Z,81.91
